Time;durP1;ratioP1;P1;durP2;ratioP2;P2;SDS_P1;SDS_P2;PMS_P1;PMS_P2;Temp;Humidity;BMP_temperature;BMP_pressure;BME280_temperature;BME280_humidity;BME280_pressure;Samples;Min_cycle;Max_cycle;Signal;HPM_P1;HPM_P2
2023/08/10 00:00:09;;;;;;;0.00;0.00;;;15.30;99.90;;;;;;5095050;28;20211;-59
2023/08/10 00:02:35;;;;;;;0.00;0.00;;;15.30;99.90;;;;;;5095019;28;20180;-58
2023/08/10 00:05:00;;;;;;;0.00;0.00;;;15.20;99.90;;;;;;5095018;28;20179;-58
2023/08/10 00:07:26;;;;;;;0.00;0.00;;;15.20;99.90;;;;;;5095038;28;20184;-59
2023/08/10 00:09:51;;;;;;;0.15;0.15;;;15.20;99.90;;;;;;5094902;28;20178;-59
2023/08/10 00:12:17;;;;;;;0.00;0.00;;;15.10;99.90;;;;;;5094866;28;20639;-59
2023/08/10 00:14:42;;;;;;;0.00;0.00;;;15.10;99.90;;;;;;5094973;28;20176;-59
2023/08/10 00:17:08;;;;;;;0.03;0.03;;;15.00;99.90;;;;;;5094695;28;20272;-59
2023/08/10 00:19:33;;;;;;;0.00;0.00;;;15.00;99.90;;;;;;5094792;28;20665;-59
2023/08/10 00:21:59;;;;;;;0.22;0.03;;;14.90;99.90;;;;;;5094693;28;20827;-59
2023/08/10 00:24:25;;;;;;;0.00;0.00;;;14.90;99.90;;;;;;5094651;28;20172;-59
2023/08/10 00:26:50;;;;;;;0.00;0.00;;;14.80;99.90;;;;;;5094631;28;20263;-59
2023/08/10 00:29:16;;;;;;;0.00;0.00;;;14.80;99.90;;;;;;5094212;28;20228;-59
2023/08/10 00:31:41;;;;;;;0.00;0.00;;;14.80;99.90;;;;;;5094659;28;20226;-59
2023/08/10 00:34:07;;;;;;;0.00;0.00;;;14.70;99.90;;;;;;5094471;28;20179;-59
2023/08/10 00:36:32;;;;;;;0.00;0.00;;;14.70;99.90;;;;;;5094202;28;20168;-58
2023/08/10 00:38:58;;;;;;;0.00;0.00;;;14.60;99.90;;;;;;5094373;28;20237;-59
2023/08/10 00:41:24;;;;;;;0.00;0.00;;;14.60;99.90;;;;;;5094432;28;20177;-59
2023/08/10 00:43:49;;;;;;;0.00;0.00;;;14.50;99.90;;;;;;5094421;28;20200;-59
2023/08/10 00:46:15;;;;;;;0.00;0.00;;;14.50;99.90;;;;;;5094057;28;20176;-59
2023/08/10 00:48:40;;;;;;;0.00;0.00;;;14.40;99.90;;;;;;5094095;28;20179;-58
2023/08/10 00:51:06;;;;;;;0.00;0.00;;;14.40;99.90;;;;;;5093920;28;20635;-59
2023/08/10 00:53:32;;;;;;;0.10;0.10;;;14.40;99.90;;;;;;5093811;28;20266;-59
2023/08/10 00:55:59;;;;;;;0.30;0.00;;;14.40;99.90;;;;;;5093897;28;20184;-59
2023/08/10 00:58:26;;;;;;;0.00;0.00;;;14.30;99.90;;;;;;5093789;28;20223;-59
2023/08/10 01:00:52;;;;;;;0.00;0.00;;;14.30;99.90;;;;;;5093788;28;20176;-59
2023/08/10 01:03:18;;;;;;;0.00;0.00;;;14.30;99.90;;;;;;5093683;28;20172;-58
2023/08/10 01:05:56;;;;;;;0.00;0.00;;;14.20;99.90;;;;;;5093777;28;20450;-58
2023/08/10 01:08:54;;;;;;;0.00;0.00;;;14.20;99.90;;;;;;5093537;28;20539;-59
2023/08/10 01:11:19;;;;;;;0.00;0.00;;;14.20;99.90;;;;;;5093238;28;20539;-58
2023/08/10 01:13:59;;;;;;;0.00;0.00;;;14.20;99.90;;;;;;5093567;28;20255;-59
2023/08/10 01:16:26;;;;;;;0.00;0.00;;;14.10;99.90;;;;;;5093345;28;20179;-59
2023/08/10 01:18:53;;;;;;;0.00;0.00;;;14.10;99.90;;;;;;5093449;28;20199;-58
2023/08/10 01:21:40;;;;;;;0.00;0.00;;;14.10;99.90;;;;;;5093329;28;20164;-59
2023/08/10 01:24:25;;;;;;;0.05;0.05;;;14.00;99.90;;;;;;5093263;28;20322;-58
2023/08/10 01:26:53;;;;;;;0.00;0.00;;;14.00;99.90;;;;;;5093380;28;20254;-58
2023/08/10 01:29:19;;;;;;;0.00;0.00;;;13.90;99.90;;;;;;5093000;28;20305;-58
2023/08/10 01:31:45;;;;;;;0.00;0.00;;;13.90;99.90;;;;;;5093169;28;20175;-58
2023/08/10 01:34:10;;;;;;;0.00;0.00;;;13.90;99.90;;;;;;5093114;28;20223;-59
2023/08/10 01:36:36;;;;;;;0.00;0.00;;;13.80;99.90;;;;;;5093057;28;20210;-59
2023/08/10 01:39:02;;;;;;;0.00;0.00;;;13.80;99.90;;;;;;5093021;28;20643;-58
2023/08/10 01:41:28;;;;;;;0.00;0.00;;;13.70;99.90;;;;;;5093000;28;20176;-59
2023/08/10 01:43:53;;;;;;;0.00;0.00;;;13.70;99.90;;;;;;5092904;28;20183;-59
2023/08/10 01:46:20;;;;;;;0.00;0.00;;;13.70;99.90;;;;;;5092991;28;20168;-59
2023/08/10 01:48:50;;;;;;;0.00;0.00;;;13.70;99.90;;;;;;5092474;28;20210;-59
2023/08/10 01:51:19;;;;;;;0.00;0.00;;;13.60;99.90;;;;;;5092631;28;20177;-59
2023/08/10 01:53:47;;;;;;;0.00;0.00;;;13.60;99.90;;;;;;5092882;28;20220;-59
2023/08/10 01:56:13;;;;;;;0.00;0.00;;;13.60;99.90;;;;;;5092605;28;20245;-59
2023/08/10 01:58:39;;;;;;;0.00;0.00;;;13.60;99.90;;;;;;5092660;28;20218;-58
2023/08/10 02:01:05;;;;;;;0.00;0.00;;;13.50;99.90;;;;;;5092633;28;20172;-59
2023/08/10 02:03:31;;;;;;;0.00;0.00;;;13.50;99.90;;;;;;5092827;28;20233;-58
2023/08/10 02:05:56;;;;;;;0.00;0.00;;;13.50;99.90;;;;;;5092323;28;20662;-59
2023/08/10 02:08:22;;;;;;;0.00;0.00;;;13.50;99.90;;;;;;5092509;28;20271;-59
2023/08/10 02:10:47;;;;;;;0.00;0.00;;;13.50;99.90;;;;;;5092594;28;20172;-59
2023/08/10 02:13:13;;;;;;;0.00;0.00;;;13.50;99.90;;;;;;5092392;28;20176;-59
2023/08/10 02:15:38;;;;;;;0.00;0.00;;;13.50;99.90;;;;;;5092465;28;20277;-58
2023/08/10 02:18:04;;;;;;;0.00;0.00;;;13.50;99.90;;;;;;5092261;28;20219;-59
2023/08/10 02:20:30;;;;;;;0.00;0.00;;;13.50;99.90;;;;;;5092404;28;20549;-59
2023/08/10 02:22:55;;;;;;;0.00;0.00;;;13.40;99.90;;;;;;5092343;28;20176;-59
2023/08/10 02:25:22;;;;;;;0.00;0.00;;;13.40;99.90;;;;;;5092353;28;20627;-58
2023/08/10 02:27:50;;;;;;;0.00;0.00;;;13.40;99.90;;;;;;5092166;28;20186;-59
2023/08/10 02:30:16;;;;;;;0.00;0.00;;;13.40;99.90;;;;;;5092190;28;20180;-58
2023/08/10 02:32:42;;;;;;;0.00;0.00;;;13.40;99.90;;;;;;5092314;28;20591;-58
2023/08/10 02:35:09;;;;;;;0.00;0.00;;;13.40;99.90;;;;;;5092254;28;20169;-58
2023/08/10 02:37:35;;;;;;;0.00;0.00;;;13.30;99.90;;;;;;5092043;28;20208;-58
2023/08/10 02:40:03;;;;;;;0.00;0.00;;;13.30;99.90;;;;;;5092066;28;20168;-58
2023/08/10 02:42:28;;;;;;;0.00;0.00;;;13.20;99.90;;;;;;5092132;28;20263;-59
2023/08/10 02:44:54;;;;;;;0.00;0.00;;;13.20;99.90;;;;;;5091821;28;20603;-58
2023/08/10 02:47:19;;;;;;;0.00;0.00;;;13.20;99.90;;;;;;5091898;28;20694;-58
2023/08/10 02:49:45;;;;;;;0.00;0.00;;;13.20;99.90;;;;;;5091932;28;20172;-58
2023/08/10 02:52:11;;;;;;;0.00;0.00;;;13.10;99.90;;;;;;5091785;28;20176;-59
2023/08/10 02:54:37;;;;;;;0.00;0.00;;;13.10;99.90;;;;;;5091862;28;20168;-58
2023/08/10 02:57:03;;;;;;;0.00;0.00;;;13.10;99.90;;;;;;5091696;28;20623;-58
2023/08/10 02:59:28;;;;;;;0.00;0.00;;;13.10;99.90;;;;;;5091294;28;20226;-58
2023/08/10 03:01:54;;;;;;;0.00;0.00;;;13.00;99.90;;;;;;5091381;28;20180;-59
2023/08/10 03:04:20;;;;;;;0.00;0.00;;;13.00;99.90;;;;;;5091758;28;20176;-59
2023/08/10 03:06:45;;;;;;;0.00;0.00;;;13.00;99.90;;;;;;5091795;28;20594;-59
2023/08/10 03:09:11;;;;;;;0.00;0.00;;;13.00;99.90;;;;;;5091670;28;20645;-59
2023/08/10 03:11:37;;;;;;;0.00;0.00;;;13.00;99.90;;;;;;5091628;28;20654;-59
2023/08/10 03:14:02;;;;;;;0.00;0.00;;;12.90;99.90;;;;;;5091549;28;20697;-58
2023/08/10 03:16:29;;;;;;;0.00;0.00;;;13.00;99.90;;;;;;5091523;28;20199;-59
2023/08/10 03:18:55;;;;;;;0.00;0.00;;;12.90;99.90;;;;;;5091569;28;20176;-58
2023/08/10 03:21:21;;;;;;;0.20;0.20;;;12.90;99.90;;;;;;5091560;28;20245;-59
2023/08/10 03:23:46;;;;;;;0.00;0.00;;;12.90;99.90;;;;;;5091573;28;20182;-59
2023/08/10 03:26:12;;;;;;;0.00;0.00;;;12.90;99.90;;;;;;5091439;28;20207;-59
2023/08/10 03:28:37;;;;;;;0.00;0.00;;;12.80;99.90;;;;;;5091369;28;20216;-59
2023/08/10 03:31:03;;;;;;;0.00;0.00;;;12.80;99.90;;;;;;5091645;28;20186;-58
2023/08/10 03:33:28;;;;;;;0.00;0.00;;;12.80;99.90;;;;;;5091501;28;20172;-58
2023/08/10 03:35:54;;;;;;;0.00;0.00;;;12.80;99.90;;;;;;5091498;28;20176;-58
2023/08/10 03:38:20;;;;;;;0.00;0.00;;;12.80;99.90;;;;;;5091361;28;20226;-58
2023/08/10 03:40:46;;;;;;;0.00;0.00;;;12.80;99.90;;;;;;5091426;28;20172;-59
2023/08/10 03:43:11;;;;;;;0.00;0.00;;;12.80;99.90;;;;;;5091503;28;20191;-58
2023/08/10 03:45:37;;;;;;;0.00;0.00;;;12.80;99.90;;;;;;5091356;28;20176;-58
2023/08/10 03:48:02;;;;;;;0.00;0.00;;;12.80;99.90;;;;;;5091244;28;20241;-58
2023/08/10 03:50:28;;;;;;;0.45;0.10;;;12.80;99.90;;;;;;5091253;28;20176;-58
2023/08/10 03:52:54;;;;;;;0.00;0.00;;;12.70;99.90;;;;;;5091127;28;20248;-58
2023/08/10 03:55:19;;;;;;;0.00;0.00;;;12.70;99.90;;;;;;5091204;28;20204;-58
2023/08/10 03:57:45;;;;;;;0.00;0.00;;;12.70;99.90;;;;;;5091192;28;20247;-59
2023/08/10 04:00:13;;;;;;;0.00;0.00;;;12.60;99.90;;;;;;5091033;28;20173;-59
2023/08/10 04:02:39;;;;;;;0.00;0.00;;;12.60;99.90;;;;;;5091103;28;20635;-59
2023/08/10 04:05:10;;;;;;;0.00;0.00;;;12.60;99.90;;;;;;5091285;28;20180;-59
2023/08/10 04:07:37;;;;;;;0.00;0.00;;;12.60;99.90;;;;;;5091246;28;20191;-58
2023/08/10 04:10:06;;;;;;;0.00;0.00;;;12.50;99.90;;;;;;5091215;28;20530;-58
2023/08/10 04:12:36;;;;;;;0.08;0.08;;;12.60;99.90;;;;;;5093557;28;20215;-58
2023/08/10 04:15:03;;;;;;;0.00;0.00;;;12.50;99.90;;;;;;5094544;28;20655;-58
2023/08/10 04:17:28;;;;;;;0.00;0.00;;;12.50;99.90;;;;;;5094640;28;20204;-59
2023/08/10 04:19:56;;;;;;;0.00;0.00;;;12.50;99.90;;;;;;5094829;28;20172;-59
2023/08/10 04:22:21;;;;;;;0.00;0.00;;;12.50;99.90;;;;;;5094647;28;20186;-59
2023/08/10 04:24:47;;;;;;;0.00;0.00;;;12.60;99.90;;;;;;5094651;28;20189;-58
2023/08/10 04:27:12;;;;;;;0.00;0.00;;;12.60;99.90;;;;;;5094712;28;20176;-59
2023/08/10 04:29:40;;;;;;;0.00;0.00;;;12.60;99.90;;;;;;5094392;28;20247;-58
2023/08/10 04:32:06;;;;;;;0.00;0.00;;;12.60;99.90;;;;;;5094503;28;20568;-59
2023/08/10 04:34:32;;;;;;;0.00;0.00;;;12.60;99.90;;;;;;5094455;28;20179;-58
2023/08/10 04:36:57;;;;;;;0.00;0.00;;;12.60;99.90;;;;;;5093915;28;20298;-58
2023/08/10 04:39:23;;;;;;;0.00;0.00;;;12.70;99.90;;;;;;5094061;28;20691;-58
2023/08/10 04:41:48;;;;;;;0.00;0.00;;;12.70;99.90;;;;;;5094044;28;20184;-58
2023/08/10 04:44:14;;;;;;;0.00;0.00;;;12.80;99.90;;;;;;5094022;28;20187;-59
2023/08/10 04:46:39;;;;;;;0.00;0.00;;;12.80;99.90;;;;;;5093900;28;20176;-58
2023/08/10 04:49:05;;;;;;;0.00;0.00;;;12.90;99.90;;;;;;5093854;28;20218;-59
2023/08/10 04:51:31;;;;;;;0.00;0.00;;;12.90;99.90;;;;;;5093976;28;20314;-58
2023/08/10 04:53:56;;;;;;;0.00;0.00;;;13.00;99.90;;;;;;5093805;28;20271;-59
2023/08/10 04:56:22;;;;;;;0.03;0.03;;;13.00;99.90;;;;;;5093590;28;20707;-58
2023/08/10 04:58:47;;;;;;;0.00;0.00;;;13.10;99.90;;;;;;5093266;28;20224;-58
2023/08/10 05:01:14;;;;;;;0.05;0.05;;;13.20;99.90;;;;;;5093473;28;20169;-58
2023/08/10 05:03:40;;;;;;;0.00;0.00;;;13.30;99.90;;;;;;5093246;28;20661;-58
2023/08/10 05:06:06;;;;;;;0.10;0.10;;;13.50;99.90;;;;;;5093150;28;20172;-58
2023/08/10 05:08:31;;;;;;;0.00;0.00;;;13.70;99.90;;;;;;5093403;28;20172;-59
2023/08/10 05:10:58;;;;;;;0.00;0.00;;;14.00;99.90;;;;;;5093220;28;20176;-58
2023/08/10 05:13:24;;;;;;;0.00;0.00;;;14.30;99.90;;;;;;5091944;28;20222;-58
2023/08/10 05:15:49;;;;;;;0.10;0.10;;;14.70;99.90;;;;;;5093479;28;20187;-59
2023/08/10 05:18:15;;;;;;;0.00;0.00;;;15.10;99.90;;;;;;5093249;28;20277;-59
2023/08/10 05:20:41;;;;;;;0.00;0.00;;;15.40;99.90;;;;;;5093215;28;20270;-58
2023/08/10 05:23:06;;;;;;;0.00;0.00;;;15.50;99.90;;;;;;5092261;28;20203;-59
2023/08/10 05:25:32;;;;;;;0.00;0.00;;;15.70;99.90;;;;;;5093239;28;20226;-59
2023/08/10 05:27:57;;;;;;;0.00;0.00;;;15.80;99.90;;;;;;5092867;28;20365;-59
2023/08/10 05:30:23;;;;;;;0.00;0.00;;;15.80;99.90;;;;;;5093088;28;20234;-59
2023/08/10 05:32:48;;;;;;;0.00;0.00;;;15.80;99.90;;;;;;5093050;28;20180;-59
2023/08/10 05:35:15;;;;;;;0.00;0.00;;;15.80;99.90;;;;;;5092897;28;20513;-58
2023/08/10 05:37:40;;;;;;;0.00;0.00;;;15.80;99.90;;;;;;5092866;28;20409;-59
2023/08/10 05:40:09;;;;;;;0.00;0.00;;;15.80;99.90;;;;;;5092886;28;20267;-59
2023/08/10 05:42:39;;;;;;;0.00;0.00;;;15.80;99.90;;;;;;5092917;28;20247;-59
2023/08/10 05:45:09;;;;;;;0.00;0.00;;;15.80;99.90;;;;;;5092849;28;20660;-59
2023/08/10 05:47:35;;;;;;;0.00;0.00;;;15.70;99.90;;;;;;5092796;28;20187;-59
2023/08/10 05:50:02;;;;;;;0.00;0.00;;;15.70;99.90;;;;;;5092595;28;20180;-58
2023/08/10 05:52:28;;;;;;;0.00;0.00;;;15.70;99.90;;;;;;5092718;28;20184;-59
2023/08/10 05:54:53;;;;;;;0.00;0.00;;;15.60;99.90;;;;;;5092688;28;20176;-59
2023/08/10 05:57:19;;;;;;;0.00;0.00;;;15.60;99.90;;;;;;5092354;28;20951;-59
2023/08/10 05:59:45;;;;;;;0.00;0.00;;;15.60;99.90;;;;;;5092550;28;20176;-59
2023/08/10 06:02:10;;;;;;;0.00;0.00;;;15.60;99.90;;;;;;5092388;28;20535;-59
2023/08/10 06:04:36;;;;;;;0.00;0.00;;;15.60;99.90;;;;;;5092480;28;20184;-59
2023/08/10 06:07:02;;;;;;;0.00;0.00;;;15.60;99.90;;;;;;5092203;28;20172;-59
2023/08/10 06:09:28;;;;;;;0.00;0.00;;;15.60;99.90;;;;;;5092190;28;20187;-59
2023/08/10 06:11:54;;;;;;;0.17;0.17;;;15.70;99.90;;;;;;5092237;28;20180;-59
2023/08/10 06:14:20;;;;;;;0.00;0.00;;;15.60;99.90;;;;;;5091955;28;20670;-59
2023/08/10 06:16:45;;;;;;;0.00;0.00;;;15.60;99.90;;;;;;5091981;28;20172;-59
2023/08/10 06:19:11;;;;;;;0.00;0.00;;;15.70;99.90;;;;;;5092064;28;20183;-59
2023/08/10 06:21:36;;;;;;;0.00;0.00;;;15.80;99.90;;;;;;5092006;28;20263;-59
2023/08/10 06:24:06;;;;;;;0.00;0.00;;;15.80;99.90;;;;;;5091821;28;20184;-59
2023/08/10 06:26:32;;;;;;;0.00;0.00;;;15.90;99.90;;;;;;5091850;28;20646;-59
2023/08/10 06:28:57;;;;;;;0.00;0.00;;;16.00;99.90;;;;;;5091555;28;20247;-59
2023/08/10 06:31:23;;;;;;;0.00;0.00;;;16.10;99.90;;;;;;5092110;28;20222;-59
2023/08/10 06:33:49;;;;;;;0.00;0.00;;;16.20;99.90;;;;;;5091982;28;20174;-59
2023/08/10 06:36:14;;;;;;;0.00;0.00;;;16.20;99.90;;;;;;5091778;28;20176;-58
2023/08/10 06:38:40;;;;;;;0.00;0.00;;;16.20;99.90;;;;;;5091727;28;20243;-58
2023/08/10 06:41:05;;;;;;;0.00;0.00;;;16.30;99.90;;;;;;5091721;28;20175;-59
2023/08/10 06:43:31;;;;;;;0.00;0.00;;;16.30;99.90;;;;;;5091835;28;20592;-59
2023/08/10 06:45:56;;;;;;;0.00;0.00;;;16.40;99.90;;;;;;5091745;28;20259;-59
2023/08/10 06:48:22;;;;;;;0.00;0.00;;;16.50;99.90;;;;;;5091682;28;20655;-59
2023/08/10 06:50:48;;;;;;;0.00;0.00;;;16.60;99.90;;;;;;5091801;28;20248;-59
2023/08/10 06:53:13;;;;;;;0.00;0.00;;;16.60;99.90;;;;;;5092083;28;20219;-59
2023/08/10 06:55:39;;;;;;;0.00;0.00;;;16.70;99.90;;;;;;5092030;28;20196;-59
2023/08/10 06:58:05;;;;;;;0.00;0.00;;;16.80;99.90;;;;;;5091769;28;20585;-59
2023/08/10 07:00:31;;;;;;;0.00;0.00;;;16.90;99.90;;;;;;5092046;28;20164;-59
2023/08/10 07:02:57;;;;;;;0.00;0.00;;;17.00;99.90;;;;;;5091956;28;20180;-59
2023/08/10 07:05:28;;;;;;;0.00;0.00;;;17.20;99.90;;;;;;5091998;28;20639;-59
2023/08/10 07:07:55;;;;;;;0.00;0.00;;;17.40;99.90;;;;;;5091929;28;20172;-59
2023/08/10 07:10:21;;;;;;;0.00;0.00;;;17.60;99.90;;;;;;5091765;28;20172;-59
2023/08/10 07:12:46;;;;;;;0.00;0.00;;;17.70;99.90;;;;;;5091856;28;20712;-59
2023/08/10 07:15:12;;;;;;;0.00;0.00;;;17.90;99.90;;;;;;5091726;28;20198;-59
2023/08/10 07:17:38;;;;;;;0.00;0.00;;;18.10;99.90;;;;;;5091547;28;20224;-59
2023/08/10 07:20:05;;;;;;;0.00;0.00;;;18.40;99.90;;;;;;5091721;28;20184;-59
2023/08/10 07:22:31;;;;;;;0.00;0.00;;;18.60;99.90;;;;;;5091823;28;20177;-59
2023/08/10 07:25:00;;;;;;;0.00;0.00;;;18.90;99.90;;;;;;5091668;28;20187;-59
2023/08/10 07:27:26;;;;;;;0.00;0.00;;;19.20;99.90;;;;;;5091765;28;20712;-59
2023/08/10 07:29:51;;;;;;;0.00;0.00;;;19.60;99.90;;;;;;5091596;28;20251;-59
2023/08/10 07:32:19;;;;;;;0.00;0.00;;;19.90;99.90;;;;;;5091657;28;20842;-59
2023/08/10 07:34:44;;;;;;;0.13;0.13;;;20.20;99.90;;;;;;5091648;28;20692;-59
2023/08/10 07:37:10;;;;;;;0.00;0.00;;;20.50;99.90;;;;;;5091592;28;20294;-59
2023/08/10 07:39:37;;;;;;;0.00;0.00;;;20.70;99.90;;;;;;5091684;28;20200;-59
2023/08/10 07:42:03;;;;;;;0.00;0.00;;;20.90;99.90;;;;;;5091588;28;20168;-59
2023/08/10 07:44:28;;;;;;;0.00;0.00;;;21.30;99.90;;;;;;5091740;28;20184;-59
2023/08/10 07:46:54;;;;;;;0.25;0.25;;;21.60;99.90;;;;;;5093134;28;20262;-59
2023/08/10 07:49:20;;;;;;;0.00;0.00;;;21.90;99.90;;;;;;5095370;28;20180;-59
2023/08/10 07:51:47;;;;;;;0.00;0.00;;;22.20;99.90;;;;;;5095551;28;20172;-60
2023/08/10 07:54:16;;;;;;;0.00;0.00;;;22.50;99.90;;;;;;5095303;28;20259;-59
2023/08/10 07:56:42;;;;;;;0.00;0.00;;;22.70;99.90;;;;;;5095177;28;20631;-59
2023/08/10 07:59:08;;;;;;;0.00;0.00;;;23.20;99.90;;;;;;5095225;28;20242;-59
2023/08/10 08:01:33;;;;;;;0.00;0.00;;;24.10;99.90;;;;;;5095329;28;20655;-59
2023/08/10 08:03:59;;;;;;;0.00;0.00;;;24.90;99.90;;;;;;5095137;28;20226;-60
2023/08/10 08:06:24;;;;;;;0.00;0.00;;;25.80;99.90;;;;;;5095096;28;20176;-60
2023/08/10 08:08:50;;;;;;;0.00;0.00;;;26.90;98.40;;;;;;5095066;28;20589;-59
2023/08/10 08:11:16;;;;;;;0.00;0.00;;;27.60;97.10;;;;;;5095042;28;20202;-59
2023/08/10 08:13:42;;;;;;;0.00;0.00;;;28.10;96.00;;;;;;5094942;28;20180;-60
2023/08/10 08:16:08;;;;;;;0.00;0.00;;;28.70;93.50;;;;;;5094878;28;20683;-59
2023/08/10 08:18:50;;;;;;;0.00;0.00;;;29.10;91.50;;;;;;5094925;28;20566;-60
2023/08/10 08:21:17;;;;;;;0.00;0.00;;;29.30;91.40;;;;;;5094840;28;20215;-60
2023/08/10 08:23:43;;;;;;;0.00;0.00;;;29.50;87.70;;;;;;5094874;28;20259;-60
2023/08/10 08:26:09;;;;;;;0.00;0.00;;;29.70;83.40;;;;;;5094714;28;20187;-59
2023/08/10 08:28:35;;;;;;;0.00;0.00;;;29.90;84.20;;;;;;5094559;28;20224;-59
2023/08/10 08:31:00;;;;;;;0.00;0.00;;;30.10;81.80;;;;;;5094580;28;20233;-59
2023/08/10 08:33:26;;;;;;;0.00;0.00;;;30.30;79.50;;;;;;5094576;28;20180;-59
2023/08/10 08:35:52;;;;;;;0.00;0.00;;;30.30;78.40;;;;;;5094606;28;20191;-59
2023/08/10 08:38:18;;;;;;;0.00;0.00;;;30.30;80.80;;;;;;5094257;28;20223;-59
2023/08/10 08:40:44;;;;;;;0.00;0.00;;;30.50;80.60;;;;;;5094512;28;20283;-59
2023/08/10 08:43:10;;;;;;;0.25;0.10;;;30.60;78.80;;;;;;5094371;28;20179;-60
2023/08/10 08:45:38;;;;;;;0.00;0.00;;;30.70;78.60;;;;;;5094518;28;20172;-60
2023/08/10 08:48:05;;;;;;;0.00;0.00;;;30.90;77.80;;;;;;5094267;28;20222;-60
2023/08/10 08:50:32;;;;;;;0.00;0.00;;;31.00;76.90;;;;;;5094497;28;20520;-60
2023/08/10 08:52:58;;;;;;;0.00;0.00;;;31.20;74.30;;;;;;5094111;28;20196;-59
2023/08/10 08:55:24;;;;;;;0.00;0.00;;;31.20;75.10;;;;;;5094316;28;20211;-59
2023/08/10 08:57:50;;;;;;;0.00;0.00;;;31.20;73.80;;;;;;5092876;28;20633;-60
2023/08/10 09:00:16;;;;;;;0.00;0.00;;;31.20;74.60;;;;;;5094029;28;20212;-60
2023/08/10 09:02:41;;;;;;;0.00;0.00;;;31.20;72.60;;;;;;5093995;28;20175;-59
2023/08/10 09:05:08;;;;;;;0.00;0.00;;;31.20;73.00;;;;;;5093999;28;20182;-60
2023/08/10 09:07:34;;;;;;;0.00;0.00;;;31.20;73.50;;;;;;5094069;28;20283;-59
2023/08/10 09:10:00;;;;;;;0.00;0.00;;;31.20;69.10;;;;;;5093842;28;20172;-60
2023/08/10 09:12:32;;;;;;;0.00;0.00;;;30.90;69.30;;;;;;5093924;28;20704;-59
2023/08/10 09:15:09;;;;;;;0.00;0.00;;;30.70;71.00;;;;;;5093712;28;20203;-60
2023/08/10 09:17:43;;;;;;;0.00;0.00;;;30.70;73.30;;;;;;5093783;28;20698;-60
2023/08/10 09:20:09;;;;;;;0.00;0.00;;;30.70;72.80;;;;;;5093583;28;20256;-60
2023/08/10 09:22:39;;;;;;;0.00;0.00;;;30.80;71.20;;;;;;5093673;28;20651;-60
2023/08/10 09:25:09;;;;;;;0.00;0.00;;;30.80;72.90;;;;;;5093521;28;20182;-60
2023/08/10 09:27:35;;;;;;;0.10;0.00;;;30.90;71.00;;;;;;5093623;28;20203;-58
2023/08/10 09:30:03;;;;;;;0.00;0.00;;;30.90;72.80;;;;;;5093154;28;20236;-58
2023/08/10 09:32:29;;;;;;;0.00;0.00;;;30.50;72.40;;;;;;5093560;28;20203;-58
2023/08/10 09:34:55;;;;;;;0.00;0.00;;;30.30;70.50;;;;;;5093424;28;20242;-58
2023/08/10 09:37:22;;;;;;;0.00;0.00;;;30.40;71.80;;;;;;5093177;28;20658;-58
2023/08/10 09:39:56;;;;;;;0.03;0.03;;;30.50;69.30;;;;;;5093353;28;20594;-58
2023/08/10 09:42:23;;;;;;;0.00;0.00;;;30.60;72.50;;;;;;5093128;28;20505;-58
2023/08/10 09:44:50;;;;;;;0.00;0.00;;;30.70;72.00;;;;;;5093330;28;20263;-58
2023/08/10 09:47:17;;;;;;;0.00;0.00;;;30.80;70.60;;;;;;5093234;28;20211;-58
2023/08/10 09:49:56;;;;;;;0.00;0.00;;;30.60;69.20;;;;;;5093121;28;20172;-58
2023/08/10 09:52:23;;;;;;;0.00;0.00;;;30.70;67.60;;;;;;5092922;28;20222;-58
2023/08/10 09:54:50;;;;;;;0.00;0.00;;;30.70;69.80;;;;;;5093092;28;20591;-58
2023/08/10 09:57:17;;;;;;;0.00;0.00;;;30.90;70.80;;;;;;5092841;28;20265;-58
2023/08/10 09:59:43;;;;;;;0.00;0.00;;;30.70;70.20;;;;;;5093050;28;20667;-58
2023/08/10 10:02:10;;;;;;;0.10;0.10;;;30.20;70.40;;;;;;5092905;28;20227;-58
2023/08/10 10:04:36;;;;;;;0.00;0.00;;;30.00;70.50;;;;;;5092931;28;20180;-58
2023/08/10 10:07:03;;;;;;;0.00;0.00;;;30.00;74.10;;;;;;5092744;28;20263;-59
2023/08/10 10:09:29;;;;;;;0.00;0.00;;;30.30;74.60;;;;;;5092490;28;20263;-59
2023/08/10 10:11:58;;;;;;;0.00;0.00;;;30.60;68.00;;;;;;5092726;28;20212;-58
2023/08/10 10:14:24;;;;;;;0.00;0.00;;;30.60;68.40;;;;;;5092829;28;20244;-58
2023/08/10 10:16:52;;;;;;;0.00;0.00;;;30.70;66.90;;;;;;5092613;28;20180;-58
2023/08/10 10:19:18;;;;;;;0.00;0.00;;;30.80;66.20;;;;;;5092378;28;20192;-58
2023/08/10 10:21:44;;;;;;;0.00;0.00;;;30.90;67.00;;;;;;5092715;28;20318;-58
2023/08/10 10:24:12;;;;;;;0.00;0.00;;;31.10;68.10;;;;;;5092579;28;20180;-58
2023/08/10 10:26:38;;;;;;;0.00;0.00;;;31.20;66.50;;;;;;5092467;28;20184;-58
2023/08/10 10:29:12;;;;;;;0.00;0.00;;;31.40;66.70;;;;;;5092223;28;20234;-58
2023/08/10 10:31:41;;;;;;;0.00;0.00;;;31.30;67.90;;;;;;5092447;28;20233;-58
2023/08/10 10:34:20;;;;;;;0.00;0.00;;;31.00;66.20;;;;;;5092328;28;20246;-58
2023/08/10 10:36:46;;;;;;;0.00;0.00;;;30.70;68.60;;;;;;5092301;28;20215;-58
2023/08/10 10:39:20;;;;;;;0.00;0.00;;;30.70;67.20;;;;;;5092254;28;20184;-58
2023/08/10 10:41:47;;;;;;;0.00;0.00;;;30.50;66.20;;;;;;5092324;28;20580;-58
2023/08/10 10:44:13;;;;;;;0.00;0.00;;;30.20;63.80;;;;;;5092075;28;20187;-58
2023/08/10 10:46:40;;;;;;;0.00;0.00;;;30.20;66.20;;;;;;5092124;28;20179;-58
2023/08/10 10:49:11;;;;;;;0.10;0.10;;;30.20;60.70;;;;;;5092127;28;20255;-58
2023/08/10 10:52:03;;;;;;;0.00;0.00;;;30.00;62.40;;;;;;5092232;28;20519;-58
2023/08/10 10:54:38;;;;;;;0.00;0.00;;;30.00;64.00;;;;;;5090113;28;20191;-58
2023/08/10 10:57:05;;;;;;;0.00;0.00;;;30.20;59.40;;;;;;5092001;28;20168;-58
2023/08/10 10:59:30;;;;;;;0.00;0.00;;;30.40;62.70;;;;;;5092065;28;20211;-58
2023/08/10 11:01:57;;;;;;;0.00;0.00;;;30.30;63.40;;;;;;5091963;28;20683;-58
2023/08/10 11:04:24;;;;;;;0.05;0.05;;;30.40;63.90;;;;;;5091818;28;20187;-58
2023/08/10 11:06:49;;;;;;;0.00;0.00;;;30.40;60.80;;;;;;5091944;28;20271;-58
2023/08/10 11:09:15;;;;;;;0.00;0.00;;;30.60;62.10;;;;;;5091818;28;20694;-58
2023/08/10 11:11:49;;;;;;;0.00;0.00;;;30.80;58.70;;;;;;5091814;28;20176;-58
2023/08/10 11:14:15;;;;;;;0.00;0.00;;;31.00;59.70;;;;;;5091821;28;20187;-58
2023/08/10 11:16:42;;;;;;;0.00;0.00;;;30.70;61.70;;;;;;5091594;28;20171;-58
2023/08/10 11:19:13;;;;;;;0.17;0.17;;;30.70;61.10;;;;;;5091665;28;20219;-58
2023/08/10 11:21:41;;;;;;;0.00;0.00;;;30.70;59.10;;;;;;5093052;28;20207;-58
2023/08/10 11:24:07;;;;;;;0.00;0.00;;;30.60;59.10;;;;;;5096032;28;20588;-58
2023/08/10 11:26:34;;;;;;;0.05;0.05;;;30.50;59.50;;;;;;5095912;28;20172;-58
2023/08/10 11:29:00;;;;;;;0.00;0.00;;;30.50;59.70;;;;;;5095526;28;20228;-58
2023/08/10 11:31:25;;;;;;;0.00;0.00;;;30.70;61.40;;;;;;5095953;28;20182;-58
2023/08/10 11:33:51;;;;;;;0.00;0.00;;;30.90;61.20;;;;;;5095810;28;20261;-58
2023/08/10 11:36:16;;;;;;;0.20;0.20;;;31.00;60.00;;;;;;5095668;28;20187;-58
2023/08/10 11:38:45;;;;;;;0.00;0.00;;;31.10;59.70;;;;;;5095551;28;20294;-58
2023/08/10 11:41:10;;;;;;;0.00;0.00;;;31.20;62.50;;;;;;5095522;28;20196;-58
2023/08/10 11:43:36;;;;;;;0.10;0.00;;;31.20;58.60;;;;;;5095651;28;20519;-58
2023/08/10 11:46:01;;;;;;;0.00;0.00;;;31.10;58.10;;;;;;5095431;28;20218;-58
2023/08/10 11:48:27;;;;;;;0.00;0.00;;;30.70;58.80;;;;;;5095534;28;20706;-58
2023/08/10 11:51:00;;;;;;;0.10;0.00;;;30.40;59.00;;;;;;5095448;28;20513;-58
2023/08/10 11:53:36;;;;;;;0.00;0.00;;;30.30;59.80;;;;;;5095340;28;20182;-58
2023/08/10 11:56:05;;;;;;;0.00;0.00;;;30.20;59.90;;;;;;5095162;28;20207;-58
2023/08/10 11:58:32;;;;;;;0.00;0.00;;;30.10;62.10;;;;;;5095345;28;20207;-58
2023/08/10 12:01:01;;;;;;;0.00;0.00;;;30.30;63.60;;;;;;5095155;28;20226;-58
2023/08/10 12:03:29;;;;;;;0.00;0.00;;;30.50;61.80;;;;;;5095182;28;20176;-59
2023/08/10 12:05:56;;;;;;;0.00;0.00;;;30.70;61.90;;;;;;5095195;28;20184;-59
2023/08/10 12:08:25;;;;;;;0.00;0.00;;;30.80;60.00;;;;;;5095017;28;20267;-58
2023/08/10 12:11:12;;;;;;;0.35;0.00;;;30.90;59.20;;;;;;5095081;28;20204;-58
2023/08/10 12:13:45;;;;;;;0.00;0.00;;;30.80;58.30;;;;;;5094876;28;20180;-59
2023/08/10 12:16:11;;;;;;;0.00;0.00;;;30.50;57.80;;;;;;5094893;28;20182;-59
2023/08/10 12:18:37;;;;;;;0.20;0.20;;;30.40;58.30;;;;;;5094927;28;20223;-58
2023/08/10 12:21:03;;;;;;;0.00;0.00;;;30.30;56.10;;;;;;5094904;28;20207;-59
2023/08/10 12:23:29;;;;;;;0.00;0.00;;;30.40;57.40;;;;;;5094952;28;20661;-58
2023/08/10 12:25:55;;;;;;;0.00;0.00;;;30.40;57.80;;;;;;5094797;28;20184;-58
2023/08/10 12:28:20;;;;;;;0.00;0.00;;;30.20;59.00;;;;;;5094431;28;20220;-58
2023/08/10 12:30:46;;;;;;;0.00;0.00;;;30.10;59.10;;;;;;5094758;28;20581;-59
2023/08/10 12:33:12;;;;;;;0.00;0.00;;;30.00;55.20;;;;;;5094318;28;20164;-58
2023/08/10 12:35:41;;;;;;;0.00;0.00;;;30.20;56.50;;;;;;5094589;28;20187;-59
2023/08/10 12:38:07;;;;;;;0.00;0.00;;;30.40;55.70;;;;;;5094402;28;20274;-59
2023/08/10 12:40:33;;;;;;;0.00;0.00;;;30.70;52.90;;;;;;5094527;28;20663;-59
2023/08/10 12:42:59;;;;;;;0.00;0.00;;;30.80;54.00;;;;;;5094340;28;20224;-59
2023/08/10 12:45:26;;;;;;;0.03;0.03;;;30.80;55.30;;;;;;5094539;28;20180;-59